Time;durP1;ratioP1;P1;durP2;ratioP2;P2;SDS_P1;SDS_P2;PMS_P1;PMS_P2;Temp;Humidity;BMP_temperature;BMP_pressure;BME280_temperature;BME280_humidity;BME280_pressure;Samples;Min_cycle;Max_cycle;Signal;HPM_P1;HPM_P2
2023/06/26 00:00:22;;;;;;;2.00;0.93;;;;;;;24.01;42.23;101535.56;5092186;28;20020;-49
2023/06/26 00:02:48;;;;;;;5.95;1.60;;;;;;;23.89;46.07;101533.16;5091953;28;20060;-49
2023/06/26 00:05:15;;;;;;;19.73;2.40;;;;;;;23.96;46.10;101530.94;5088644;28;20028;-51
2023/06/26 00:07:42;;;;;;;3.08;1.08;;;;;;;24.03;44.05;101533.34;5072904;28;20024;-50
2023/06/26 00:10:08;;;;;;;3.13;1.20;;;;;;;24.06;44.95;101542.94;5073073;28;20025;-50
2023/06/26 00:12:35;;;;;;;1.42;1.27;;;;;;;23.89;44.25;101544.09;5081274;28;20111;-47
2023/06/26 00:15:01;;;;;;;1.73;1.10;;;;;;;23.88;43.48;101531.53;5093309;28;20016;-47
2023/06/26 00:17:27;;;;;;;11.80;1.83;;;;;;;23.70;44.90;101529.38;5093194;28;20024;-47
2023/06/26 00:19:54;;;;;;;2.60;1.10;;;;;;;23.54;44.23;101525.00;5092989;28;20034;-47
2023/06/26 00:22:21;;;;;;;2.35;1.35;;;;;;;23.63;45.46;101528.84;5092648;28;20064;-48
2023/06/26 00:24:48;;;;;;;2.13;1.40;;;;;;;23.34;45.42;101526.69;5092833;28;20419;-50
2023/06/26 00:27:14;;;;;;;1.95;1.50;;;;;;;23.25;47.07;101527.50;5093063;28;20024;-48
2023/06/26 00:29:40;;;;;;;1.48;1.38;;;;;;;23.08;46.73;101523.13;5092871;28;20035;-48
2023/06/26 00:32:07;;;;;;;2.25;1.38;;;;;;;23.16;46.82;101524.50;5093026;28;20028;-48
2023/06/26 00:34:33;;;;;;;2.45;1.10;;;;;;;23.08;45.45;101525.84;5092927;28;20024;-50
2023/06/26 00:37:00;;;;;;;1.95;1.23;;;;;;;23.09;45.31;101526.69;5093041;28;20031;-47
2023/06/26 00:39:26;;;;;;;1.48;1.23;;;;;;;22.84;47.44;101522.00;5092735;28;20502;-49
2023/06/26 00:41:55;;;;;;;2.13;1.40;;;;;;;22.67;46.42;101525.00;5092573;28;20024;-50
2023/06/26 00:44:22;;;;;;;2.83;1.42;;;;;;;22.53;46.73;101521.94;5092809;28;20020;-50
2023/06/26 00:46:48;;;;;;;1.90;1.08;;;;;;;22.36;47.55;101513.16;5093260;28;20020;-48
2023/06/26 00:49:15;;;;;;;2.00;1.35;;;;;;;22.45;47.10;101519.75;5078358;28;20477;-50
2023/06/26 00:51:41;;;;;;;2.20;1.20;;;;;;;22.38;46.83;101520.00;5072314;28;20357;-50
2023/06/26 00:54:07;;;;;;;1.63;1.40;;;;;;;22.29;47.39;101518.06;5078023;28;20035;-51
2023/06/26 00:56:35;;;;;;;1.80;1.13;;;;;;;22.07;47.79;101521.78;5071969;28;20033;-50
2023/06/26 00:59:01;;;;;;;1.60;1.40;;;;;;;21.92;47.95;101529.88;5079428;28;20047;-50
2023/06/26 01:01:27;;;;;;;1.77;1.02;;;;;;;21.94;48.02;101538.63;5092223;28;20089;-49
2023/06/26 01:03:54;;;;;;;1.95;1.17;;;;;;;21.99;48.00;101529.66;5092163;28;20028;-47
2023/06/26 01:06:25;;;;;;;3.28;1.20;;;;;;;21.78;48.68;101526.81;5085308;28;20021;-47
2023/06/26 01:08:52;;;;;;;1.83;1.00;;;;;;;21.65;49.22;101534.63;5074816;28;20024;-47
2023/06/26 01:11:18;;;;;;;2.83;1.20;;;;;;;21.68;48.30;101529.47;5092020;28;20024;-51
2023/06/26 01:13:45;;;;;;;2.10;1.30;;;;;;;21.46;49.00;101531.50;5091792;28;20078;-51
2023/06/26 01:16:12;;;;;;;1.52;1.35;;;;;;;21.38;48.68;101530.09;5092072;28;20480;-51
2023/06/26 01:18:45;;;;;;;1.30;1.20;;;;;;;21.49;48.96;101531.81;5091734;28;20106;-51
2023/06/26 01:21:13;;;;;;;5.22;1.55;;;;;;;21.36;49.45;101537.69;5091465;28;20480;-48
2023/06/26 01:24:27;;;;;;;2.42;1.77;;;;;;;21.32;50.33;101540.16;5091979;28;20059;-51
2023/06/26 01:26:53;;;;;;;1.75;1.45;;;;;;;21.29;49.42;101523.47;5092051;28;20040;-50
2023/06/26 01:29:23;;;;;;;2.97;1.83;;;;;;;21.14;50.31;101524.16;5091762;28;20502;-50
2023/06/26 01:31:49;;;;;;;1.80;1.30;;;;;;;21.04;51.50;101527.63;5092023;28;20473;-51
2023/06/26 01:34:17;;;;;;;2.90;1.50;;;;;;;20.76;51.02;101520.53;5090627;28;20129;-51
2023/06/26 01:36:47;;;;;;;2.00;1.45;;;;;;;20.80;51.57;101527.13;5091009;28;20406;-49
2023/06/26 01:39:19;;;;;;;1.30;1.20;;;;;;;20.89;51.91;101532.13;5091625;28;20109;-48
2023/06/26 01:41:45;;;;;;;2.15;1.50;;;;;;;20.76;51.31;101525.16;5071677;28;20062;-50
2023/06/26 01:44:26;;;;;;;3.15;1.40;;;;;;;20.93;51.43;101527.78;5071623;28;20070;-49
2023/06/26 01:47:02;;;;;;;1.60;1.25;;;;;;;20.94;51.47;101519.38;5071719;28;20532;-51
2023/06/26 01:49:46;;;;;;;1.98;1.38;;;;;;;20.90;51.04;101515.53;5070851;28;20067;-50
2023/06/26 01:53:03;;;;;;;2.28;1.40;;;;;;;20.96;51.28;101519.94;5077749;28;20062;-47
2023/06/26 01:55:35;;;;;;;1.83;1.30;;;;;;;21.13;50.86;101516.25;5031605;28;20534;-49
2023/06/26 01:58:03;;;;;;;1.50;1.27;;;;;;;21.30;51.05;101522.41;5076416;28;20365;-51
2023/06/26 02:00:30;;;;;;;1.20;1.10;;;;;;;21.52;49.96;101511.41;5083944;28;20066;-49
2023/06/26 02:02:57;;;;;;;1.65;1.27;;;;;;;21.65;48.83;101504.66;5071567;28;20047;-51
2023/06/26 02:05:23;;;;;;;2.08;1.55;;;;;;;21.72;49.08;101506.06;5073358;28;20036;-48
2023/06/26 02:07:51;;;;;;;2.63;1.30;;;;;;;21.88;47.71;101512.44;5072110;28;20027;-50
2023/06/26 02:10:17;;;;;;;2.65;1.30;;;;;;;21.81;47.61;101504.47;5084305;28;20020;-50
2023/06/26 02:12:44;;;;;;;1.95;1.33;;;;;;;22.05;47.16;101509.50;5092016;28;20028;-46
2023/06/26 02:15:10;;;;;;;2.00;1.10;;;;;;;22.10;47.18;101510.38;5091788;28;20030;-51
2023/06/26 02:17:36;;;;;;;1.55;1.10;;;;;;;22.08;46.75;101504.31;5091526;28;20061;-49
2023/06/26 02:20:03;;;;;;;1.80;1.20;;;;;;;22.06;46.75;101509.22;5091857;28;20103;-51
2023/06/26 02:22:29;;;;;;;2.30;1.40;;;;;;;;;;5070363;28;20040;-47
2023/06/26 02:24:55;;;;;;;4.22;1.20;;;;;;;22.14;46.53;101503.28;5083024;28;20446;-50
2023/06/26 02:27:21;;;;;;;1.30;1.20;;;;;;;22.24;46.58;101499.78;5094460;28;20028;-49
2023/06/26 02:29:48;;;;;;;1.52;1.23;;;;;;;22.11;47.09;101500.28;5089991;28;20041;-50
2023/06/26 02:32:14;;;;;;;3.05;1.23;;;;;;;22.00;47.06;101504.84;5075519;28;20074;-51
2023/06/26 02:34:40;;;;;;;1.67;1.20;;;;;;;22.05;47.11;101504.88;5075112;28;20469;-50
2023/06/26 02:37:07;;;;;;;1.92;1.30;;;;;;;22.16;46.74;101511.22;5086634;28;20052;-47
2023/06/26 02:39:34;;;;;;;1.58;1.10;;;;;;;22.12;46.45;101502.75;5094282;28;20016;-47
2023/06/26 02:42:01;;;;;;;1.30;0.90;;;;;;;22.28;46.09;101502.81;5085148;28;20024;-55
2023/06/26 02:44:27;;;;;;;2.35;1.40;;;;;;;22.47;45.62;101505.84;5074195;28;20029;-53
2023/06/26 02:46:53;;;;;;;2.63;1.15;;;;;;;22.32;45.57;101507.47;5087980;28;20090;-56
2023/06/26 02:49:19;;;;;;;1.80;1.30;;;;;;;22.05;45.98;101510.31;5093238;28;20032;-53
2023/06/26 02:51:46;;;;;;;2.60;1.60;;;;;;;21.88;46.72;101498.81;5088164;28;20151;-53
2023/06/26 02:54:12;;;;;;;1.35;1.05;;;;;;;21.52;47.60;101495.06;5093313;28;20028;-52
2023/06/26 02:56:38;;;;;;;2.15;1.13;;;;;;;20.88;49.31;101500.56;5091503;28;20032;-53
2023/06/26 02:59:04;;;;;;;2.00;1.23;;;;;;;20.55;50.13;101508.66;5074600;28;20059;-56
2023/06/26 03:01:31;;;;;;;8.73;1.48;;;;;;;20.47;50.32;101505.56;5084873;28;20031;-56
2023/06/26 03:03:57;;;;;;;1.77;1.30;;;;;;;20.06;51.79;101505.09;5080096;28;20146;-57
2023/06/26 03:06:23;;;;;;;6.07;3.15;;;;;;;19.60;53.20;101514.50;5087809;28;20107;-51
2023/06/26 03:08:49;;;;;;;2.92;1.48;;;;;;;19.19;54.84;101514.66;5083504;28;20052;-50
2023/06/26 03:11:16;;;;;;;3.25;2.08;;;;;;;19.05;54.94;101516.09;5086761;28;20051;-48
2023/06/26 03:13:42;;;;;;;3.17;1.67;;;;;;;18.30;57.52;101513.59;5091556;28;20035;-52
2023/06/26 03:16:08;;;;;;;3.53;2.45;;;;;;;17.95;59.00;101519.94;5076920;28;20487;-55
2023/06/26 03:18:34;;;;;;;4.25;1.85;;;;;;;17.52;60.46;101521.09;5076693;28;20115;-57
2023/06/26 03:21:01;;;;;;;2.35;1.17;;;;;;;17.34;60.82;101521.22;5072314;28;20506;-56
2023/06/26 03:23:27;;;;;;;3.10;2.10;;;;;;;17.09;62.14;101530.34;5094098;28;20024;-55
2023/06/26 03:25:53;;;;;;;2.13;1.35;;;;;;;16.64;63.68;101532.66;5084587;28;20035;-49
2023/06/26 03:28:20;;;;;;;1.33;1.10;;;;;;;16.48;64.74;101530.59;5089890;28;20027;-49
2023/06/26 03:30:46;;;;;;;2.83;1.30;;;;;;;16.43;65.11;101535.84;5093540;28;20091;-56
2023/06/26 03:33:12;;;;;;;1.52;1.13;;;;;;;16.05;66.14;101543.19;5088615;28;20020;-52
2023/06/26 03:35:39;;;;;;;1.45;1.02;;;;;;;16.10;66.05;101547.88;5086742;28;20103;-54
2023/06/26 03:38:05;;;;;;;3.47;1.08;;;;;;;16.05;66.32;101545.06;5083713;28;20396;-51
2023/06/26 03:40:31;;;;;;;1.92;0.90;;;;;;;16.03;66.56;101547.97;5090642;28;20024;-51
2023/06/26 03:42:58;;;;;;;3.47;1.83;;;;;;;15.69;67.63;101549.38;5073214;28;20392;-50
2023/06/26 03:45:24;;;;;;;2.80;1.35;;;;;;;15.58;68.24;101553.59;5075554;28;20149;-49
2023/06/26 03:47:50;;;;;;;2.85;1.50;;;;;;;15.65;68.03;101564.34;5072862;28;20039;-49
2023/06/26 03:50:17;;;;;;;2.60;1.40;;;;;;;15.61;68.26;101559.59;5072754;28;20077;-47
2023/06/26 03:52:44;;;;;;;3.08;1.55;;;;;;;15.50;69.02;101555.75;5079489;28;20039;-48
2023/06/26 03:55:10;;;;;;;2.53;1.42;;;;;;;15.38;69.47;101552.94;5074557;28;20027;-49
2023/06/26 03:57:37;;;;;;;3.20;1.27;;;;;;;15.28;69.35;101555.31;5082938;28;20492;-50
2023/06/26 04:00:12;;;;;;;2.95;1.45;;;;;;;15.31;69.19;101560.25;5077611;28;20078;-50
2023/06/26 04:02:38;;;;;;;2.45;1.40;;;;;;;15.30;69.09;101564.81;5085120;28;20062;-49
2023/06/26 04:05:05;;;;;;;2.80;1.20;;;;;;;15.41;68.38;101560.59;5081834;28;20085;-50
2023/06/26 04:07:31;;;;;;;1.85;1.40;;;;;;;15.28;69.15;101569.63;5090491;28;20089;-50
2023/06/26 04:09:58;;;;;;;3.80;1.70;;;;;;;15.34;68.89;101573.31;5080503;28;20028;-48
2023/06/26 04:12:24;;;;;;;2.78;1.92;;;;;;;15.40;68.69;101574.31;5073322;28;20031;-50
2023/06/26 04:14:50;;;;;;;1.63;1.52;;;;;;;15.26;69.56;101574.38;5086763;28;20040;-51
2023/06/26 04:17:17;;;;;;;3.38;1.90;;;;;;;15.24;69.62;101570.28;5093081;28;20126;-48
2023/06/26 04:19:43;;;;;;;3.97;1.80;;;;;;;15.24;69.86;101568.41;5093753;28;20094;-50
2023/06/26 04:22:09;;;;;;;2.30;2.10;;;;;;;15.25;69.78;101567.34;5092881;28;20047;-50
2023/06/26 04:24:35;;;;;;;3.78;1.90;;;;;;;15.27;70.10;101569.84;5092909;28;20400;-49
2023/06/26 04:27:03;;;;;;;2.63;2.00;;;;;;;15.27;70.21;101576.06;5093101;28;20035;-51
2023/06/26 04:29:29;;;;;;;3.53;1.92;;;;;;;15.26;70.90;101584.34;5092937;28;20050;-52
2023/06/26 04:31:58;;;;;;;3.80;2.13;;;;;;;15.12;71.22;101583.63;5092791;28;20064;-49
2023/06/26 04:34:28;;;;;;;3.33;2.22;;;;;;;14.85;72.45;101585.66;5073086;28;20081;-52
2023/06/26 04:36:54;;;;;;;3.70;2.00;;;;;;;14.92;72.02;101589.13;5074944;28;20029;-50
2023/06/26 04:39:21;;;;;;;4.00;2.20;;;;;;;14.95;72.10;101583.31;5092769;28;20027;-49
2023/06/26 04:41:47;;;;;;;2.03;1.65;;;;;;;14.96;71.83;101579.59;5092885;28;20050;-51
2023/06/26 04:44:13;;;;;;;2.47;2.17;;;;;;;14.93;72.57;101596.19;5092985;28;20465;-49
2023/06/26 04:46:42;;;;;;;2.60;2.28;;;;;;;14.93;72.63;101595.34;5092847;28;20116;-52
2023/06/26 04:49:09;;;;;;;2.40;1.60;;;;;;;14.97;72.67;101592.00;5074604;28;20032;-51
2023/06/26 04:51:40;;;;;;;2.20;1.63;;;;;;;14.94;72.89;101591.63;5074673;28;20122;-48
2023/06/26 04:54:11;;;;;;;2.00;1.65;;;;;;;15.04;72.28;101598.19;5088517;28;20068;-51
2023/06/26 04:56:39;;;;;;;2.65;1.45;;;;;;;15.18;71.69;101600.81;5092387;28;20024;-51
2023/06/26 04:59:06;;;;;;;4.03;1.63;;;;;;;15.08;72.41;101597.75;5092773;28;20035;-51
2023/06/26 05:01:32;;;;;;;2.72;1.40;;;;;;;15.02;72.49;101594.88;5092160;28;20503;-51
2023/06/26 05:04:02;;;;;;;2.90;1.60;;;;;;;15.12;72.18;101597.13;5092638;28;20089;-50
2023/06/26 05:06:28;;;;;;;2.55;1.30;;;;;;;15.16;71.82;101601.03;5087876;28;20028;-50
2023/06/26 05:08:54;;;;;;;2.45;1.50;;;;;;;15.01;71.90;101593.25;5092110;28;20430;-51
2023/06/26 05:11:21;;;;;;;2.42;1.40;;;;;;;15.00;72.40;101599.69;5092139;28;20500;-50
2023/06/26 05:13:47;;;;;;;1.58;1.33;;;;;;;14.92;72.60;101599.91;5092218;28;20111;-51
2023/06/26 05:16:13;;;;;;;2.20;1.40;;;;;;;14.96;72.29;101587.66;5092002;28;20391;-52
2023/06/26 05:18:39;;;;;;;2.28;1.38;;;;;;;14.95;72.55;101599.50;5091867;28;20545;-50
2023/06/26 05:21:06;;;;;;;1.30;1.15;;;;;;;14.85;72.71;101596.44;5091868;28;20080;-52
2023/06/26 05:23:34;;;;;;;3.05;1.45;;;;;;;14.83;72.65;101595.03;5092043;28;20115;-50
2023/06/26 05:26:04;;;;;;;1.55;1.17;;;;;;;14.64;73.61;101594.06;5091697;28;20035;-50
2023/06/26 05:28:35;;;;;;;1.70;1.15;;;;;;;14.77;73.22;101597.53;5091657;28;20107;-51
2023/06/26 05:31:04;;;;;;;2.17;1.40;;;;;;;14.93;72.55;101590.78;5090612;28;20031;-51
2023/06/26 05:33:34;;;;;;;2.00;1.20;;;;;;;14.82;73.09;101594.16;5091544;28;20031;-51
2023/06/26 05:36:04;;;;;;;2.05;1.35;;;;;;;14.77;73.45;101596.72;5091409;28;20032;-49
2023/06/26 05:38:30;;;;;;;2.55;1.80;;;;;;;14.67;74.29;101585.56;5091461;28;20024;-50
2023/06/26 05:40:57;;;;;;;2.35;1.50;;;;;;;14.73;73.64;101584.69;5092091;28;20024;-51
2023/06/26 05:43:23;;;;;;;2.92;1.50;;;;;;;14.77;73.34;101575.16;5076413;28;20028;-49
2023/06/26 05:45:49;;;;;;;2.40;1.42;;;;;;;14.83;72.90;101574.28;5083167;28;20036;-52
2023/06/26 05:48:16;;;;;;;3.15;1.60;;;;;;;14.76;73.68;101578.88;5091518;28;20553;-51
2023/06/26 05:50:43;;;;;;;3.47;2.10;;;;;;;14.60;75.39;101580.19;5091702;28;20365;-52
2023/06/26 05:53:10;;;;;;;2.65;1.65;;;;;;;14.66;74.70;101583.91;5091569;28;20024;-51
2023/06/26 05:55:36;;;;;;;2.10;1.50;;;;;;;14.77;74.38;101581.38;5091381;28;20100;-51
2023/06/26 05:58:03;;;;;;;3.20;1.88;;;;;;;14.75;74.71;101579.91;5091054;28;20031;-52
2023/06/26 06:00:30;;;;;;;4.13;2.05;;;;;;;14.63;74.90;101579.75;5095335;28;20491;-52
2023/06/26 06:02:56;;;;;;;3.08;2.05;;;;;;;14.55;75.24;101573.78;5095602;28;20028;-51
2023/06/26 06:05:23;;;;;;;1.80;1.63;;;;;;;14.65;75.23;101576.84;5095652;28;20109;-50
2023/06/26 06:07:49;;;;;;;4.38;2.42;;;;;;;14.49;75.57;101570.94;5095433;28;20154;-48
2023/06/26 06:10:16;;;;;;;2.17;1.67;;;;;;;14.55;75.37;101577.34;5093672;28;20434;-50
2023/06/26 06:12:42;;;;;;;2.65;1.95;;;;;;;14.40;76.11;101571.34;5094998;28;20052;-50
2023/06/26 06:15:08;;;;;;;3.13;2.10;;;;;;;14.36;76.65;101583.56;5095194;28;20115;-52
2023/06/26 06:17:35;;;;;;;3.72;1.90;;;;;;;14.29;76.85;101580.09;5093639;28;20031;-51
2023/06/26 06:20:01;;;;;;;3.45;1.80;;;;;;;14.17;77.46;101583.44;5095084;28;20459;-52
2023/06/26 06:22:27;;;;;;;4.13;2.20;;;;;;;14.16;77.25;101580.97;5094318;28;20087;-49
2023/06/26 06:24:53;;;;;;;2.55;1.90;;;;;;;14.18;77.42;101595.03;5075035;28;20152;-52
2023/06/26 06:27:19;;;;;;;4.00;1.73;;;;;;;14.17;77.08;101593.38;5074144;28;20456;-51
2023/06/26 06:29:46;;;;;;;2.28;1.50;;;;;;;14.27;76.30;101596.47;5089487;28;20460;-50
2023/06/26 06:32:12;;;;;;;2.25;1.80;;;;;;;14.26;76.63;101594.78;5095060;28;20100;-51
2023/06/26 06:34:38;;;;;;;2.65;1.80;;;;;;;14.07;77.56;101590.31;5095058;28;20158;-51
2023/06/26 06:37:04;;;;;;;4.30;2.25;;;;;;;14.07;77.55;101584.91;5094479;28;20138;-51
2023/06/26 06:39:31;;;;;;;3.15;2.00;;;;;;;14.00;78.00;101577.69;5093745;28;20415;-49
2023/06/26 06:41:57;;;;;;;2.65;2.20;;;;;;;13.96;78.27;101581.00;5091614;28;20060;-51
2023/06/26 06:44:23;;;;;;;3.10;2.08;;;;;;;13.82;78.94;101588.25;5074410;28;20025;-49
2023/06/26 06:46:49;;;;;;;2.08;1.83;;;;;;;13.72;79.23;101588.72;5074409;28;20027;-50
2023/06/26 06:49:16;;;;;;;3.47;2.10;;;;;;;13.63;79.37;101586.44;5080314;28;20100;-51
2023/06/26 06:51:42;;;;;;;2.70;2.05;;;;;;;13.72;79.15;101587.88;5094885;28;20036;-51
2023/06/26 06:54:08;;;;;;;2.28;1.92;;;;;;;13.69;79.25;101582.91;5094690;28;20024;-49
2023/06/26 06:56:34;;;;;;;3.28;2.20;;;;;;;13.70;79.24;101585.38;5094562;28;20032;-48
2023/06/26 06:59:01;;;;;;;4.05;2.47;;;;;;;13.70;79.44;101590.75;5094383;28;20220;-47
2023/06/26 07:01:27;;;;;;;6.00;2.65;;;;;;;13.65;80.01;101589.72;5094131;28;20110;-50
2023/06/26 07:03:53;;;;;;;4.72;2.70;;;;;;;13.49;80.84;101588.28;5094472;28;20111;-47
2023/06/26 07:06:19;;;;;;;3.53;2.63;;;;;;;13.37;81.14;101589.94;5094465;28;20543;-50
2023/06/26 07:08:46;;;;;;;5.18;2.85;;;;;;;13.53;80.55;101591.41;5093369;28;20118;-50
2023/06/26 07:11:12;;;;;;;6.03;2.85;;;;;;;13.40;81.71;101600.28;5093378;28;20028;-47
2023/06/26 07:13:38;;;;;;;5.57;3.25;;;;;;;13.42;81.94;101590.16;5094107;28;20058;-48
2023/06/26 07:16:04;;;;;;;5.07;3.47;;;;;;;13.55;81.22;101587.47;5094371;28;20434;-48
2023/06/26 07:18:31;;;;;;;6.28;3.55;;;;;;;13.55;81.14;101586.63;5093846;28;20111;-47
2023/06/26 07:20:57;;;;;;;6.68;3.42;;;;;;;13.63;80.69;101584.56;5094072;28;21134;-51
2023/06/26 07:23:23;;;;;;;6.40;3.85;;;;;;;13.50;81.06;101583.75;5094093;28;20028;-50
2023/06/26 07:25:50;;;;;;;6.05;3.28;;;;;;;13.42;81.29;101580.22;5091229;28;20028;-50
2023/06/26 07:28:16;;;;;;;6.40;3.22;;;;;;;13.46;80.85;101572.56;5093656;28;20027;-47
2023/06/26 07:30:42;;;;;;;6.07;3.53;;;;;;;13.50;81.03;101581.88;5093315;28;20115;-48
2023/06/26 07:33:08;;;;;;;10.30;4.05;;;;;;;13.38;81.73;101573.63;5093845;28;20103;-48
2023/06/26 07:35:35;;;;;;;12.00;4.45;;;;;;;13.45;81.92;101571.75;5093282;28;20016;-47
2023/06/26 07:38:01;;;;;;;10.65;3.90;;;;;;;13.42;81.27;101569.47;5093575;28;20043;-47
2023/06/26 07:40:27;;;;;;;7.53;3.70;;;;;;;13.37;81.52;101558.50;5094133;28;20480;-50
2023/06/26 07:42:54;;;;;;;6.22;3.92;;;;;;;13.43;81.41;101564.91;5082755;28;20028;-47
2023/06/26 07:45:20;;;;;;;6.55;3.22;;;;;;;13.41;80.81;101558.91;5073640;28;20029;-47
2023/06/26 07:47:46;;;;;;;9.98;4.00;;;;;;;13.32;80.98;101565.53;5089281;28;20492;-47
2023/06/26 07:50:15;;;;;;;5.90;3.42;;;;;;;13.37;80.79;101557.66;5093610;28;20016;-48
2023/06/26 07:52:41;;;;;;;7.63;4.15;;;;;;;13.42;80.60;101556.00;5093565;28;20047;-48
2023/06/26 07:55:08;;;;;;;8.68;4.22;;;;;;;13.49;80.21;101553.31;5093351;28;20027;-47
2023/06/26 07:57:34;;;;;;;7.90;3.60;;;;;;;13.31;80.85;101553.13;5093039;28;20024;-47
2023/06/26 08:00:00;;;;;;;6.18;4.10;;;;;;;13.27;80.66;101554.56;5093400;28;20020;-48
2023/06/26 08:02:27;;;;;;;8.00;4.10;;;;;;;13.33;80.41;101551.91;5093225;28;20089;-47
2023/06/26 08:04:53;;;;;;;6.63;4.05;;;;;;;13.40;79.92;101552.72;5092409;28;20156;-47
2023/06/26 08:07:19;;;;;;;12.43;3.60;;;;;;;13.37;80.20;101547.75;5092513;28;20483;-47
2023/06/26 08:09:45;;;;;;;6.65;3.90;;;;;;;13.44;80.05;101548.59;5091890;28;20028;-47
2023/06/26 08:12:12;;;;;;;9.85;4.30;;;;;;;13.44;80.22;101543.22;5093244;28;20024;-51
2023/06/26 08:14:38;;;;;;;9.23;4.20;;;;;;;13.48;80.41;101540.91;5092713;28;20024;-47
2023/06/26 08:17:05;;;;;;;8.07;4.13;;;;;;;13.50;80.42;101538.03;5092883;28;20034;-51
2023/06/26 08:19:31;;;;;;;12.57;4.47;;;;;;;13.58;79.73;101544.00;5092923;28;20028;-50
2023/06/26 08:21:57;;;;;;;11.00;4.40;;;;;;;13.52;79.98;101539.47;5091940;28;20131;-48
2023/06/26 08:24:23;;;;;;;8.75;4.65;;;;;;;13.59;79.77;101537.59;5092759;28;20438;-51
2023/06/26 08:26:49;;;;;;;13.15;4.18;;;;;;;13.64;79.17;101536.97;5092822;28;20024;-51
2023/06/26 08:29:16;;;;;;;7.57;3.97;;;;;;;13.46;79.62;101534.91;5092687;28;20102;-49
2023/06/26 08:31:43;;;;;;;11.02;3.88;;;;;;;13.55;79.08;101538.22;5092972;28;20031;-50
2023/06/26 08:34:09;;;;;;;11.88;4.38;;;;;;;13.39;79.60;101534.94;5092848;28;20031;-52
2023/06/26 08:36:36;;;;;;;11.02;4.55;;;;;;;13.53;79.15;101530.34;5091638;28;20020;-49
2023/06/26 08:39:04;;;;;;;10.95;4.53;;;;;;;13.50;79.14;101536.16;5092659;28;20032;-50
2023/06/26 08:41:31;;;;;;;11.15;4.25;;;;;;;13.47;79.23;101518.56;5092903;28;20435;-51
2023/06/26 08:43:57;;;;;;;10.93;4.10;;;;;;;13.48;79.30;101528.28;5086842;28;20034;-50
2023/06/26 08:46:24;;;;;;;12.95;3.83;;;;;;;13.44;79.53;101526.25;5092933;28;20020;-50
2023/06/26 08:48:57;;;;;;;7.70;3.35;;;;;;;13.49;79.25;101515.66;5092219;28;20021;-51
2023/06/26 08:51:28;;;;;;;6.43;3.15;;;;;;;13.55;78.75;101519.38;5092428;28;20106;-49
2023/06/26 08:54:11;;;;;;;9.77;3.65;;;;;;;13.57;78.99;101511.94;5092631;28;20050;-52
2023/06/26 08:56:42;;;;;;;9.85;4.05;;;;;;;13.47;79.26;101521.25;5092313;28;20090;-47
2023/06/26 08:59:14;;;;;;;15.10;4.50;;;;;;;13.43;79.90;101503.88;5089737;28;20036;-50
2023/06/26 09:01:41;;;;;;;8.43;4.60;;;;;;;13.54;79.59;101506.97;5092506;28;20020;-46
2023/06/26 09:04:07;;;;;;;9.82;3.95;;;;;;;13.57;78.91;101504.69;5090237;28;20036;-48
2023/06/26 09:06:34;;;;;;;10.50;3.78;;;;;;;13.53;79.21;101510.72;5092025;28;20078;-49
2023/06/26 09:09:00;;;;;;;9.23;3.97;;;;;;;13.48;79.37;101506.78;5091971;28;20123;-48
2023/06/26 09:11:26;;;;;;;7.88;3.55;;;;;;;13.41;79.61;101505.13;5092017;28;20473;-46
2023/06/26 09:13:53;;;;;;;10.32;3.90;;;;;;;13.55;79.28;101505.94;5091850;28;20031;-50
2023/06/26 09:16:27;;;;;;;8.23;3.97;;;;;;;13.45;79.79;101509.91;5091810;28;20035;-47
2023/06/26 09:18:54;;;;;;;6.38;3.40;;;;;;;13.58;79.07;101498.28;5088582;28;20381;-49
2023/06/26 09:21:22;;;;;;;10.07;3.50;;;;;;;13.60;78.64;101490.84;5091322;28;20572;-50
2023/06/26 09:23:49;;;;;;;8.27;3.60;;;;;;;13.45;79.38;101493.75;5091358;28;20040;-49
2023/06/26 09:26:16;;;;;;;12.52;4.35;;;;;;;13.24;79.95;101483.22;5091159;28;20491;-49
2023/06/26 09:28:43;;;;;;;8.45;3.10;;;;;;;13.40;79.23;101485.50;5090995;28;20036;-48
2023/06/26 09:31:10;;;;;;;7.97;3.38;;;;;;;13.47;79.11;101489.00;5091546;28;20028;-49
2023/06/26 09:33:38;;;;;;;11.27;3.58;;;;;;;13.44;79.74;101486.72;5091165;28;20118;-50
2023/06/26 09:36:11;;;;;;;9.10;3.78;;;;;;;13.45;80.08;101477.63;5091766;28;20029;-50
2023/06/26 09:38:37;;;;;;;8.25;3.88;;;;;;;13.52;79.59;101472.22;5088865;28;20445;-47
2023/06/26 09:41:04;;;;;;;10.75;4.13;;;;;;;13.43;80.08;101474.28;5091369;28;20435;-46
2023/06/26 09:43:31;;;;;;;10.70;3.92;;;;;;;13.46;80.11;101476.59;5088299;28;20031;-46
2023/06/26 09:45:58;;;;;;;12.00;4.60;;;;;;;13.38;80.66;101484.88;5088403;28;20051;-47
2023/06/26 09:48:25;;;;;;;11.85;4.03;;;;;;;13.43;80.40;101478.84;5091466;28;20024;-47
2023/06/26 09:50:51;;;;;;;10.20;4.00;;;;;;;13.48;79.61;101473.69;5091422;28;20038;-46
2023/06/26 09:53:18;;;;;;;8.23;3.75;;;;;;;13.40;80.21;101466.66;5091898;28;20020;-46
2023/06/26 09:55:44;;;;;;;12.93;4.40;;;;;;;13.32;80.39;101468.72;5091678;28;20424;-47
2023/06/26 09:58:15;;;;;;;11.43;3.70;;;;;;;13.33;81.05;101465.03;5090904;28;20107;-51
2023/06/26 10:00:44;;;;;;;7.75;3.70;;;;;;;13.36;80.44;101460.03;5091438;28;20042;-49
2023/06/26 10:03:12;;;;;;;8.38;4.22;;;;;;;13.31;80.86;101459.84;5091681;28;20032;-50
2023/06/26 10:05:39;;;;;;;12.55;3.88;;;;;;;13.30;80.90;101452.81;5091691;28;20063;-46
2023/06/26 10:08:07;;;;;;;12.55;4.88;;;;;;;13.12;81.99;101464.19;5091257;28;20032;-49
2023/06/26 10:10:36;;;;;;;8.65;3.38;;;;;;;13.15;81.70;101453.00;5090281;28;20380;-48
2023/06/26 10:13:19;;;;;;;9.60;4.38;;;;;;;12.97;82.57;101449.28;5091579;28;20020;-49
2023/06/26 10:15:46;;;;;;;8.57;3.90;;;;;;;13.16;81.89;101453.84;5091425;28;20055;-46
2023/06/26 10:18:15;;;;;;;11.45;4.20;;;;;;;13.23;81.60;101457.38;5091424;28;20024;-49
2023/06/26 10:20:45;;;;;;;9.18;4.32;;;;;;;13.07;82.07;101455.91;5091521;28;20024;-47
2023/06/26 10:23:12;;;;;;;10.93;4.63;;;;;;;13.20;81.91;101452.38;5091311;28;20048;-50
2023/06/26 10:25:42;;;;;;;15.43;4.10;;;;;;;13.29;81.45;101445.78;5091058;28;20024;-50
2023/06/26 10:28:11;;;;;;;12.55;4.47;;;;;;;13.26;81.72;101448.06;5091065;28;20572;-50
2023/06/26 10:30:39;;;;;;;7.30;4.10;;;;;;;13.25;81.83;101452.63;5091206;28;20392;-49
2023/06/26 10:33:07;;;;;;;16.77;5.13;;;;;;;13.20;82.25;101455.88;5091372;28;20028;-50
2023/06/26 10:35:41;;;;;;;6.68;3.65;;;;;;;13.14;82.64;101450.53;5091248;28;20020;-50
2023/06/26 10:38:07;;;;;;;11.73;4.25;;;;;;;13.05;83.01;101457.16;5090968;28;20029;-49
2023/06/26 10:40:45;;;;;;;10.43;4.00;;;;;;;13.03;83.13;101445.78;5091018;28;20111;-50
2023/06/26 10:43:14;;;;;;;11.65;4.20;;;;;;;13.02;82.96;101453.00;5077430;28;20128;-48
2023/06/26 10:45:55;;;;;;;10.25;3.70;;;;;;;13.13;82.29;101443.50;5070261;28;20024;-51
2023/06/26 10:48:22;;;;;;;12.48;3.70;;;;;;;13.24;81.88;101439.41;5074214;28;20032;-50
2023/06/26 10:50:49;;;;;;;13.23;4.50;;;;;;;13.24;81.89;101444.75;5074652;28;20074;-51
2023/06/26 10:53:24;;;;;;;10.45;3.78;;;;;;;13.35;81.11;101441.44;5100317;28;20028;-50
2023/06/26 10:56:00;;;;;;;12.77;4.50;;;;;;;13.11;81.76;101441.03;5094625;28;20035;-51
2023/06/26 10:58:41;;;;;;;7.63;3.67;;;;;;;13.12;81.85;101437.31;5094260;28;20028;-50
2023/06/26 11:01:26;;;;;;;9.18;3.80;;;;;;;13.20;81.75;101433.56;5094229;28;20028;-50
2023/06/26 11:04:16;;;;;;;13.65;4.05;;;;;;;13.04;82.05;101436.69;5061120;28;20041;-50
2023/06/26 11:06:46;;;;;;;8.85;3.85;;;;;;;13.04;82.20;101431.31;5053668;28;20049;-50
2023/06/26 11:09:15;;;;;;;10.38;4.00;;;;;;;12.93;82.52;101436.25;5051835;28;20040;-50
2023/06/26 11:12:04;;;;;;;9.77;4.50;;;;;;;13.02;82.43;101436.06;5062633;28;20056;-48
2023/06/26 11:14:32;;;;;;;10.02;3.97;;;;;;;12.97;82.35;101441.22;5031907;28;20041;-49
2023/06/26 11:16:59;;;;;;;7.30;4.13;;;;;;;12.89;82.78;101437.72;5040101;28;20505;-50
2023/06/26 11:19:30;;;;;;;13.07;4.82;;;;;;;12.87;83.42;101439.78;5051718;28;20477;-49
2023/06/26 11:22:01;;;;;;;14.73;4.43;;;;;;;12.87;83.81;101433.56;5051198;28;20072;-49
2023/06/26 11:24:29;;;;;;;11.02;4.28;;;;;;;12.87;83.91;101430.91;5051255;28;20508;-50
2023/06/26 11:27:02;;;;;;;16.55;4.63;;;;;;;12.84;83.92;101429.47;5051231;28;20059;-50